createdAt,value
2022-07-28T00:02:17.699Z,99077.56
2022-07-28T00:07:22.930Z,99078.34
2022-07-28T00:12:28.592Z,99083.66
2022-07-28T00:17:36.223Z,99077.78
2022-07-28T00:22:44.840Z,99085.75
2022-07-28T00:27:50.050Z,99078.81
2022-07-28T00:32:57.624Z,99086.31
2022-07-28T00:38:03.482Z,99084.38
2022-07-28T00:43:10.775Z,99074.72
2022-07-28T00:48:20.213Z,99069.38
2022-07-28T00:53:25.921Z,99067.22
2022-07-28T00:58:31.453Z,99069.38
2022-07-28T01:03:42.644Z,99080.50
2022-07-28T01:09:08.837Z,99071.88
2022-07-28T01:14:20.326Z,99077.25
2022-07-28T01:19:46.410Z,99080.97
2022-07-28T01:24:59.380Z,99070.81
2022-07-28T01:30:11.867Z,99069.41
2022-07-28T01:35:24.235Z,99071.19
2022-07-28T01:40:34.025Z,99070.88
2022-07-28T01:45:41.429Z,99081.94
2022-07-28T01:50:51.708Z,99071.81
2022-07-28T01:55:57.886Z,99069.13
2022-07-28T02:01:05.128Z,99069.88
2022-07-28T02:06:17.302Z,99070.81
2022-07-28T02:11:34.704Z,99067.84
2022-07-28T02:16:43.083Z,99059.97
2022-07-28T02:21:52.759Z,99064.91
2022-07-28T02:27:02.281Z,99062.44
2022-07-28T02:32:26.902Z,99062.38
2022-07-28T02:37:40.476Z,99072.19
2022-07-28T02:42:49.828Z,99070.28
2022-07-28T02:47:59.957Z,99076.31
2022-07-28T02:53:15.044Z,99070.53
2022-07-28T02:58:24.131Z,99080.38
2022-07-28T03:03:30.545Z,99108.03
2022-07-28T03:08:38.479Z,99103.53
2022-07-28T03:13:44.393Z,99107.56
2022-07-28T03:18:49.576Z,99112.19
2022-07-28T03:23:58.756Z,99107.19
2022-07-28T03:29:05.866Z,99117.16
2022-07-28T03:34:12.295Z,99123.13
2022-07-28T03:39:20.848Z,99116.94
2022-07-28T03:44:28.786Z,99114.41
2022-07-28T03:49:34.129Z,99120.50
2022-07-28T03:54:41.668Z,99124.41
2022-07-28T03:59:46.689Z,99124.22
2022-07-28T04:04:53.530Z,99127.94
2022-07-28T04:10:01.772Z,99121.66
2022-07-28T04:15:09.532Z,99128.91
2022-07-28T04:20:15.515Z,99132.59
2022-07-28T04:25:25.871Z,99117.88
2022-07-28T04:30:30.975Z,99125.28
2022-07-28T04:35:37.339Z,99114.53
2022-07-28T04:40:45.011Z,99116.22
2022-07-28T04:45:53.408Z,99116.28
2022-07-28T04:50:59.566Z,99106.63
2022-07-28T04:56:07.967Z,99114.78
2022-07-28T05:01:13.138Z,99117.53
2022-07-28T05:06:18.790Z,99113.56
2022-07-28T05:11:26.470Z,99103.38
2022-07-28T05:16:31.460Z,99114.47
2022-07-28T05:21:37.952Z,99114.41
2022-07-28T05:26:45.854Z,99113.97
2022-07-28T05:31:52.223Z,99106.25
2022-07-28T05:36:57.301Z,99116.88
2022-07-28T05:42:04.900Z,99114.81
2022-07-28T05:47:09.972Z,99115.19
2022-07-28T05:52:14.902Z,99109.94
2022-07-28T05:57:23.669Z,99106.78
2022-07-28T06:02:28.823Z,99107.53
2022-07-28T06:07:43.961Z,99112.47
2022-07-28T06:12:53.240Z,99107.09
2022-07-28T06:17:58.629Z,99111.50
2022-07-28T06:23:03.681Z,99107.44
2022-07-28T06:28:11.404Z,99104.09
2022-07-28T06:33:17.418Z,99113.47
2022-07-28T06:38:23.322Z,99113.63
2022-07-28T06:43:34.158Z,99120.16
2022-07-28T06:48:43.501Z,99113.53
2022-07-28T06:53:48.998Z,99113.91
2022-07-28T06:59:03.201Z,99106.22
2022-07-28T07:04:10.378Z,99109.78
2022-07-28T07:09:19.462Z,99103.66
2022-07-28T07:14:29.331Z,99107.84
2022-07-28T07:19:34.567Z,99101.06
2022-07-28T07:24:39.756Z,99094.94
2022-07-28T07:29:47.232Z,99097.19
2022-07-28T07:34:52.137Z,99086.78
2022-07-28T07:39:57.378Z,99098.06
2022-07-28T07:45:05.051Z,99101.41
2022-07-28T07:50:13.406Z,99096.28
2022-07-28T07:55:19.284Z,99104.75
2022-07-28T08:00:28.523Z,99100.97
2022-07-28T08:05:35.418Z,99103.34
2022-07-28T08:10:42.404Z,99101.06
2022-07-28T08:15:50.470Z,99101.91
2022-07-28T08:21:04.535Z,99103.13
2022-07-28T08:26:10.094Z,99105.75
2022-07-28T08:31:22.095Z,99098.81
2022-07-28T08:36:27.583Z,99108.88
2022-07-28T08:41:40.100Z,99103.81
2022-07-28T08:46:50.735Z,99096.63
2022-07-28T08:51:58.755Z,99093.84
2022-07-28T08:57:06.129Z,99096.88
2022-07-28T09:02:16.343Z,99088.94
2022-07-28T09:07:22.139Z,99088.75
2022-07-28T09:12:28.638Z,99084.16
2022-07-28T09:17:38.078Z,99080.16
2022-07-28T09:22:59.416Z,99076.34
2022-07-28T09:28:28.230Z,99081.47
2022-07-28T09:33:41.246Z,99073.38
2022-07-28T09:38:49.924Z,99073.25
2022-07-28T09:43:56.161Z,99077.13
2022-07-28T09:49:04.741Z,99086.47
2022-07-28T09:54:13.828Z,99071.66
2022-07-28T09:59:19.487Z,99088.94
2022-07-28T10:04:38.478Z,99067.88
2022-07-28T10:09:44.506Z,99068.72
2022-07-28T10:14:50.573Z,99063.75
2022-07-28T10:19:59.101Z,99057.16
2022-07-28T10:25:05.269Z,99054.50
2022-07-28T10:30:12.124Z,99049.94
2022-07-28T10:35:20.835Z,99051.31
2022-07-28T10:40:30.335Z,99043.94
2022-07-28T10:46:03.294Z,99033.75
2022-07-28T10:51:05.966Z,99038.44
2022-07-28T10:56:18.796Z,99042.50
2022-07-28T11:01:49.020Z,99039.16
2022-07-28T11:07:13.529Z,99020.22
2022-07-28T11:12:19.166Z,99018.19
2022-07-28T11:17:33.091Z,99008.94
2022-07-28T11:22:41.795Z,99005.84
2022-07-28T11:28:05.311Z,99009.59
2022-07-28T11:33:11.184Z,99004.66
2022-07-28T11:38:18.871Z,98994.16
2022-07-28T11:43:42.443Z,98999.16
2022-07-28T11:48:50.121Z,98996.50
2022-07-28T11:53:59.191Z,99001.94
2022-07-28T11:59:06.873Z,98994.81
2022-07-28T12:04:16.038Z,98987.03
2022-07-28T12:09:41.287Z,98975.84
2022-07-28T12:14:47.490Z,98974.25
2022-07-28T12:19:59.952Z,98970.78
2022-07-28T12:25:13.951Z,98967.34
2022-07-28T12:30:25.875Z,98963.88
2022-07-28T12:35:31.042Z,98962.31
2022-07-28T12:40:40.107Z,98945.00
2022-07-28T12:45:48.540Z,98951.91
2022-07-28T12:50:53.782Z,98942.09
2022-07-28T12:56:06.146Z,98938.41
2022-07-28T13:01:13.313Z,98945.97
2022-07-28T13:06:18.396Z,98930.91
2022-07-28T13:11:46.111Z,98929.47
2022-07-28T13:17:03.592Z,98921.44
2022-07-28T13:22:12.314Z,98928.31
2022-07-28T13:27:20.382Z,98912.75
2022-07-28T13:32:25.609Z,98909.66
2022-07-28T13:37:30.806Z,98900.69
2022-07-28T13:42:38.594Z,98893.31
2022-07-28T13:47:43.436Z,98888.09
2022-07-28T13:52:48.750Z,98896.16
2022-07-28T13:57:56.677Z,98893.41
2022-07-28T14:03:01.855Z,98886.38
2022-07-28T14:08:07.680Z,98886.81
2022-07-28T14:13:17.060Z,98877.06
2022-07-28T14:18:24.982Z,98878.31
2022-07-28T14:23:31.759Z,98881.03
2022-07-28T14:28:39.472Z,98885.81
2022-07-28T14:33:48.366Z,98869.72
2022-07-28T14:38:56.607Z,98865.47
2022-07-28T14:44:04.128Z,98872.88
2022-07-28T14:49:09.144Z,98866.34
2022-07-28T14:54:14.824Z,98860.22
2022-07-28T14:59:22.933Z,98859.78
2022-07-28T15:04:28.605Z,98856.59
2022-07-28T15:09:36.392Z,98850.09
2022-07-28T15:14:47.610Z,98852.19
2022-07-28T15:19:52.589Z,98854.97
2022-07-28T15:25:01.031Z,98850.31
2022-07-28T15:30:09.799Z,98853.03
2022-07-28T15:35:18.284Z,98843.88
2022-07-28T15:40:23.515Z,98840.03
2022-07-28T15:45:32.664Z,98836.09
2022-07-28T15:50:38.188Z,98836.16
2022-07-28T15:55:48.961Z,98829.16
2022-07-28T16:01:01.103Z,98822.56
2022-07-28T16:06:07.459Z,98817.56
2022-07-28T16:11:13.389Z,98820.97
2022-07-28T16:16:21.443Z,98822.81
2022-07-28T16:21:26.525Z,98825.22
2022-07-28T16:26:31.800Z,98820.34
2022-07-28T16:31:44.824Z,98815.22
2022-07-28T16:36:50.338Z,98815.19
2022-07-28T16:41:55.669Z,98808.97
2022-07-28T16:47:05.237Z,98819.13
2022-07-28T16:52:10.347Z,98820.38
2022-07-28T16:57:15.533Z,98822.31
2022-07-28T17:02:23.313Z,98823.44
2022-07-28T17:07:28.307Z,98826.97
2022-07-28T17:12:33.321Z,98822.31
2022-07-28T17:17:41.006Z,98823.06
2022-07-28T17:22:49.205Z,98830.09
2022-07-28T17:27:54.106Z,98831.69
2022-07-28T17:33:07.887Z,98841.41
2022-07-28T17:38:15.926Z,98831.69
2022-07-28T17:43:21.236Z,98834.81
2022-07-28T17:48:28.713Z,98833.25
2022-07-28T17:53:39.104Z,98830.94
2022-07-28T17:58:44.817Z,98830.16
2022-07-28T18:03:59.226Z,98834.81
2022-07-28T18:09:08.097Z,98833.25
2022-07-28T18:14:17.930Z,98835.59
2022-07-28T18:19:25.776Z,98840.22
2022-07-28T18:24:32.008Z,98834.03
2022-07-28T18:29:38.359Z,98834.41
2022-07-28T18:34:46.387Z,98826.59
2022-07-28T18:39:51.478Z,98822.66
2022-07-28T18:44:56.412Z,98831.53
2022-07-28T18:50:04.007Z,98824.50
2022-07-28T18:55:09.891Z,98828.41
2022-07-28T19:00:16.404Z,98824.41
2022-07-28T19:05:24.085Z,98844.50
2022-07-28T19:10:29.332Z,98849.84
2022-07-28T19:15:35.525Z,98846.22
2022-07-28T19:20:43.518Z,98855.47
2022-07-28T19:25:48.599Z,98861.06
2022-07-28T19:30:53.706Z,98866.78
2022-07-28T19:36:01.979Z,98866.41
2022-07-28T19:41:09.392Z,98872.38
2022-07-28T19:46:14.566Z,98874.53
2022-07-28T19:51:22.116Z,98876.94
2022-07-28T19:56:31.211Z,98880.06
2022-07-28T20:01:44.171Z,98883.59
2022-07-28T20:06:55.631Z,98893.00
2022-07-28T20:12:00.848Z,98891.69
2022-07-28T20:17:06.011Z,98890.69
2022-07-28T20:22:13.642Z,98881.16
2022-07-28T20:27:18.550Z,98892.47
2022-07-28T20:32:23.501Z,98890.34
2022-07-28T20:37:36.818Z,98891.56
2022-07-28T20:42:43.822Z,98885.34
2022-07-28T20:47:48.667Z,98896.47
2022-07-28T20:52:56.206Z,98894.59
2022-07-28T20:58:01.071Z,98896.66
2022-07-28T21:03:08.147Z,98893.69
2022-07-28T21:08:16.339Z,98901.47
2022-07-28T21:13:24.080Z,98909.41
2022-07-28T21:18:31.923Z,98900.44
2022-07-28T21:23:40.663Z,98898.72
2022-07-28T21:28:58.066Z,98903.47
2022-07-28T21:34:02.949Z,98905.47
2022-07-28T21:39:11.466Z,98903.88
2022-07-28T21:44:16.511Z,98903.31
2022-07-28T21:49:21.756Z,98895.31
2022-07-28T21:54:30.829Z,98896.06
2022-07-28T21:59:35.762Z,98905.84
2022-07-28T22:04:41.651Z,98904.69
2022-07-28T22:09:49.367Z,98902.06
2022-07-28T22:14:54.195Z,98903.34
2022-07-28T22:19:59.218Z,98909.75
2022-07-28T22:25:07.265Z,98916.97
2022-07-28T22:30:13.041Z,98920.19
2022-07-28T22:35:19.401Z,98917.59
2022-07-28T22:40:27.184Z,98928.63
2022-07-28T22:45:50.122Z,98923.78
2022-07-28T22:50:56.079Z,98923.47
2022-07-28T22:56:03.696Z,98938.72
2022-07-28T23:01:11.718Z,98936.31
2022-07-28T23:06:17.389Z,98935.47
2022-07-28T23:11:24.913Z,98944.47
2022-07-28T23:16:29.952Z,98943.03
2022-07-28T23:21:34.859Z,98941.25
2022-07-28T23:26:43.832Z,98961.28
2022-07-28T23:31:49.672Z,98951.38
2022-07-28T23:36:54.667Z,98971.81
2022-07-28T23:42:02.297Z,98967.28
2022-07-28T23:47:09.301Z,98962.53
2022-07-28T23:52:14.228Z,98950.31
2022-07-28T23:57:21.848Z,98943.19
